This demonstration page uses our WeatherBlox Daily Observations layout. Learn more.

41.55636, -103.73856

Hourly Observations for December 6, 2019

Temp ( °F °C ) Dew Point ( °F °C ) Humidity (%) Winds ( mph kmh ) Pressure ( in mb ) Visibility ( mi km ) Precip ( " mm )
12:58 am 00:58 Clear 26 -3.5 22 -5.6 86 86 SW 13 20 30.33 1027 10 16.09344 N/A
1:58 am 01:58 Mostly Clear 26 -3.3 23 -5.1 88 88 SSW 14 22 30.33 1027 10 16.09344 N/A
2:58 am 02:58 Clear 27 -2.8 24 -4.2 90 90 SW 16 26 30.3 1026 10 16.09344 N/A
3:58 am 03:58 Mostly Cloudy 28 -2.1 25 -4 87 87 SW 13 20 30.3 1026 10 16.09344 N/A
4:58 am 04:58 Clear 29 -1.5 24 -4.5 80 80 WSW 12 19 30.3 1026 10 16.09344 N/A
5:58 am 05:58 Mostly Clear 30 -1 24 -4.5 77 77 SW 18 30 30.3 1026 10 16.09344 N/A
6:58 am 06:58 Clear 30 -1.1 24 -4.7 77 77 SW 21 33 30.33 1027 10 16.09344 N/A
7:58 am 07:58 Sunny 30 -0.9 24 -4.3 78 78 SW 22 35 30.33 1027 10 16.09344 N/A
8:58 am 08:58 Sunny 33 0.5 26 -3.3 76 76 SW 21 33 30.33 1027 10 16.09344 N/A
9:58 am 09:58 Sunny 37 2.5 28 -2.1 72 72 SW 16 26 30.33 1027 10 16.09344 N/A
10:58 am 10:58 Sunny 38 3.6 29 -1.4 70 70 WSW 17 28 30.3 1026 10 16.09344 N/A
11:58 am 11:58 Sunny 41 5 30 -1.2 65 65 WSW 14 22 30.27 1025 10 16.09344 N/A
12:58 pm 12:58 Sunny 43 5.9 30 -1.3 60 60 W 12 19 30.27 1025 10 16.09344 N/A
1:58 pm 13:58 Sunny 43 6.3 30 -1.2 59 59 W 10 17 30.27 1025 10 16.09344 N/A
2:58 pm 14:58 Sunny 43 6 31 -0.7 62 62 W 10 17 30.24 1024 10 16.09344 N/A
3:58 pm 15:58 Sunny 40 4.2 30 -1.3 68 68 SW 3 6 30.27 1025 10 16.09344 N/A
4:58 pm 16:58 Clear 37 2.8 29 -1.9 72 72 W 8 13 30.27 1025 10 16.09344 N/A
5:58 pm 17:58 Clear 35 1.7 28 -2.2 76 76 W 13 20 30.27 1025 10 16.09344 N/A
6:58 pm 18:58 Clear 35 1.9 28 -2.3 74 74 W 13 20 30.27 1025 10 16.09344 N/A
7:58 pm 19:58 Clear 33 0.5 27 -3 78 78 W 14 22 30.27 1025 10 16.09344 N/A
8:58 pm 20:58 Clear 33 0.5 26 -3.2 77 77 W 15 24 30.24 1024 10 16.09344 N/A
9:58 pm 21:58 Clear 32 0.2 25 -3.8 75 75 W 12 19 30.24 1024 10 16.09344 N/A
10:58 pm 22:58 Clear 31 -0.6 24 -4.5 75 75 S 10 17 30.24 1024 10 16.09344 N/A
11:58 pm 23:58 Clear 31 -0.7 24 -4.3 77 77 SSW 8 13 30.18 1022 10 16.09344 N/A

Powered by AerisWeather